Центральный

Карта отелей и гостиниц, располагающихся рядом с аэропортом Центральный :

Центральный
Одесса
Одесская область 46° 25' 36.1812" N, 30° 40' 35.22" E
Код аэродрома ИКАО
UKOO
Код аэродрома RU
УКОО
Координаты
N46.42672° E030.67645°
Превышение над уровнем моря
52
Основная полоса
16/34
Курс магнитный
157,4/337,4
Длина основной ВПП
2800
Ширина основной ВПП
55
Покрытие основной ВПП
Твёрдое (асфальтобетон)
Освещение ВПП
Постоянное
Тип: 
Аэродром
Класс аэродрома: 
Международный
Принадлежность: 
ГА
Статус: 
Действующий
Сайт: 
www.airport.odessa.ua
E-mail аэродрома: 
office@airport.odessa.ua
Страна: 
Украина
Регион: 
Одесская область
Город: 
Одесса
Погода: 

Авиационная погода в Одессе

Регион: 
Погода METAR: 
UKOO 221800Z 30001MPS CAVOK M04/M08 Q1015 NOSIG
Время наблюдения
2022-01-22T18:00:00Z
Температура C
-4.0
Точка росы
-8.0
Направление ветра
300
Скорость ветра (узлы)
2
Метео видимость
6.21
Облачность
CAVOK
Нижняя граница облачности (футы)
Явления погоды
Условия полета
VFR
Аэропорт подробнее: 

Найти трансфер

С помощью этой формы Вы можете найти трансфер из аэропорта Центральный в город, аэропорт или вокзал:

Погода в аэропортах:

Авиационная погода в Сочи

Регион: 
Погода METAR: 
URSS 221800Z 03005MPS 9999 -SHRA OVC039CB 04/03 Q1010 R02/290060 R06/290060 NOSIG RMK R06/06004MPS MT OBSC QFE756
Время наблюдения
2022-01-22T18:00:00Z
Температура C
4.0
Точка росы
3.0
Направление ветра
30
Скорость ветра (узлы)
10
Метео видимость
6.21
Облачность
OVC
Нижняя граница облачности (футы)
3900
Явления погоды
-SHRA
Условия полета
VFR
Аэропорт подробнее: 
OVC – сплошная облачность;
-SHRA - слабый ливневой дождь;

Авиационная погода в Синопе

Регион: 
Погода METAR: 
LTCM 220850Z 25007KT 6000 -RA SCT014 BKN032 BKN080 02/01 Q1016
Время наблюдения
2022-01-22T08:50:00Z
Температура C
2.0
Точка росы
1.0
Направление ветра
250
Скорость ветра (узлы)
7
Метео видимость
3.73
Облачность
SCT
BKN
BKN
Нижняя граница облачности (футы)
1400
3200
8000
Явления погоды
-RA
Условия полета
MVFR
SCT – разбросанная отдельная облачность; BKN – значительная (рассеянная, разорванная) облачность;
-RA - слабый дождь;

Авиационная погода в аэропорту Новый

Регион: 
Погода METAR: 
UHHH 221800Z 19001MPS 4200 FU NSC M29/M32 Q1027 R23R/090060 NOSIG RMK QFE764/1019
Время наблюдения
2022-01-22T18:00:00Z
Температура C
-29.0
Точка росы
-32.0
Направление ветра
190
Скорость ветра (узлы)
2
Метео видимость
2.61
Облачность
CLR
Нижняя граница облачности (футы)
Явления погоды
FU
Условия полета
IFR
Аэропорт подробнее: 
CLR — нет облаков ниже 3000 м
FU – дым (видимость менее 10 км);

Авиационная погода в Череповце

Регион: 
Погода METAR: 
ULWC 221800Z 06002MPS 9999 -SN BKN010 M09/M11 Q1018 R03/490536 NOSIG RMK QFE753/1005
Время наблюдения
2022-01-22T18:00:00Z
Температура C
-9.0
Точка росы
-11.0
Направление ветра
60
Скорость ветра (узлы)
4
Метео видимость
6.21
Облачность
BKN
Нижняя граница облачности (футы)
1000
Явления погоды
-SN
Условия полета
MVFR
Аэропорт подробнее: 
BKN – значительная (рассеянная, разорванная) облачность;
-SN – слабый снег;